Terminal Aerodrome Forecast
Issued by NWS

Home | Current Version | Previous Version | Graphics & Text | Print | Product List | Glossary On
Versions: 1 2 3 4 5 6 7 8 9 10 11 12 13 14
515
FTUS43 KTOP 231720
TAFMHK
TAF
KMHK 231720Z 2318/2418 17009KT P6SM SKC
     FM240700 18008KT P6SM SKC WS020/18045KT
     FM241300 18015G28KT P6SM FEW250=

USA.gov is the U.S. government's official web portal to all federal, state and local government web resources and services.